sensor_id;sensor_type;location;lat;lon;timestamp;pressure;altitude;pressure_sealevel;temperature;humidity
20612;BME280;10465;42.686;23.364;2023-06-14T00:01:40;94706.13;;;18.82;100.00
20612;BME280;10465;42.686;23.364;2023-06-14T00:04:06;94703.50;;;18.86;100.00
20612;BME280;10465;42.686;23.364;2023-06-14T00:06:34;94706.94;;;18.86;100.00
20612;BME280;10465;42.686;23.364;2023-06-14T00:08:59;94704.53;;;18.77;100.00
20612;BME280;10465;42.686;23.364;2023-06-14T00:11:25;94709.25;;;18.88;100.00
20612;BME280;10465;42.686;23.364;2023-06-14T00:13:52;94706.19;;;18.86;100.00
20612;BME280;10465;42.686;23.364;2023-06-14T00:16:17;94703.56;;;18.89;100.00
20612;BME280;10465;42.686;23.364;2023-06-14T00:18:44;94698.59;;;18.91;100.00
20612;BME280;10465;42.686;23.364;2023-06-14T00:21:11;94695.56;;;18.93;100.00
20612;BME280;10465;42.686;23.364;2023-06-14T00:23:37;94693.66;;;18.93;100.00
20612;BME280;10465;42.686;23.364;2023-06-14T00:26:03;94692.56;;;18.98;100.00
20612;BME280;10465;42.686;23.364;2023-06-14T00:28:28;94693.75;;;19.00;100.00
20612;BME280;10465;42.686;23.364;2023-06-14T00:30:54;94694.06;;;18.95;100.00
20612;BME280;10465;42.686;23.364;2023-06-14T00:33:20;94684.72;;;18.86;100.00
20612;BME280;10465;42.686;23.364;2023-06-14T00:35:45;94671.53;;;18.73;100.00
20612;BME280;10465;42.686;23.364;2023-06-14T00:38:12;94666.94;;;18.74;100.00
20612;BME280;10465;42.686;23.364;2023-06-14T00:40:38;94679.31;;;18.82;100.00
20612;BME280;10465;42.686;23.364;2023-06-14T00:43:03;94694.47;;;18.97;100.00
20612;BME280;10465;42.686;23.364;2023-06-14T00:45:28;94665.09;;;18.78;100.00
20612;BME280;10465;42.686;23.364;2023-06-14T00:48:00;94681.34;;;18.89;100.00
20612;BME280;10465;42.686;23.364;2023-06-14T00:50:26;94643.69;;;18.59;100.00
20612;BME280;10465;42.686;23.364;2023-06-14T00:52:51;94654.69;;;18.73;100.00
20612;BME280;10465;42.686;23.364;2023-06-14T00:55:17;94683.66;;;18.90;100.00
20612;BME280;10465;42.686;23.364;2023-06-14T00:57:42;94644.94;;;18.65;100.00
20612;BME280;10465;42.686;23.364;2023-06-14T01:00:09;94668.59;;;18.82;100.00
20612;BME280;10465;42.686;23.364;2023-06-14T01:02:38;94678.66;;;18.89;100.00
20612;BME280;10465;42.686;23.364;2023-06-14T01:05:05;94681.69;;;18.87;100.00
20612;BME280;10465;42.686;23.364;2023-06-14T01:13:07;94689.66;;;18.84;100.00
20612;BME280;10465;42.686;23.364;2023-06-14T01:15:34;94671.59;;;18.77;100.00
20612;BME280;10465;42.686;23.364;2023-06-14T01:18:00;94678.16;;;18.83;100.00
20612;BME280;10465;42.686;23.364;2023-06-14T01:20:32;94678.16;;;18.83;100.00
20612;BME280;10465;42.686;23.364;2023-06-14T01:23:02;94681.28;;;18.85;100.00
20612;BME280;10465;42.686;23.364;2023-06-14T01:25:27;94662.22;;;18.67;100.00
20612;BME280;10465;42.686;23.364;2023-06-14T01:27:57;94674.97;;;18.74;100.00
20612;BME280;10465;42.686;23.364;2023-06-14T01:30:24;94693.53;;;18.86;100.00
20612;BME280;10465;42.686;23.364;2023-06-14T01:32:54;94691.94;;;18.82;100.00
20612;BME280;10465;42.686;23.364;2023-06-14T01:35:21;94661.81;;;18.65;100.00
20612;BME280;10465;42.686;23.364;2023-06-14T01:37:47;94678.09;;;18.76;100.00
20612;BME280;10465;42.686;23.364;2023-06-14T01:40:15;94681.94;;;18.78;100.00
20612;BME280;10465;42.686;23.364;2023-06-14T01:42:41;94683.84;;;18.78;100.00
20612;BME280;10465;42.686;23.364;2023-06-14T01:45:08;94678.53;;;18.82;100.00
20612;BME280;10465;42.686;23.364;2023-06-14T01:47:35;94682.38;;;18.81;100.00
20612;BME280;10465;42.686;23.364;2023-06-14T01:50:02;94652.16;;;18.61;100.00
20612;BME280;10465;42.686;23.364;2023-06-14T01:52:28;94682.31;;;18.77;100.00
20612;BME280;10465;42.686;23.364;2023-06-14T01:54:53;94676.53;;;18.75;100.00
20612;BME280;10465;42.686;23.364;2023-06-14T01:57:19;94672.25;;;18.70;100.00
20612;BME280;10465;42.686;23.364;2023-06-14T01:59:45;94682.63;;;18.72;100.00
20612;BME280;10465;42.686;23.364;2023-06-14T02:02:14;94682.88;;;18.67;100.00
20612;BME280;10465;42.686;23.364;2023-06-14T02:04:39;94690.59;;;18.68;100.00
20612;BME280;10465;42.686;23.364;2023-06-14T02:07:05;94672.06;;;18.60;100.00
20612;BME280;10465;42.686;23.364;2023-06-14T02:09:30;94676.63;;;18.59;100.00
20612;BME280;10465;42.686;23.364;2023-06-14T02:11:56;94681.41;;;18.69;100.00
20612;BME280;10465;42.686;23.364;2023-06-14T02:14:21;94678.38;;;18.71;100.00
20612;BME280;10465;42.686;23.364;2023-06-14T02:16:47;94699.16;;;18.77;100.00
20612;BME280;10465;42.686;23.364;2023-06-14T02:19:16;94701.78;;;18.74;100.00
20612;BME280;10465;42.686;23.364;2023-06-14T02:21:42;94693.34;;;18.72;100.00
20612;BME280;10465;42.686;23.364;2023-06-14T02:24:08;94698.97;;;18.67;100.00
20612;BME280;10465;42.686;23.364;2023-06-14T02:26:33;94697.69;;;18.57;100.00
20612;BME280;10465;42.686;23.364;2023-06-14T02:28:59;94705.41;;;18.62;100.00
20612;BME280;10465;42.686;23.364;2023-06-14T02:31:26;94701.00;;;18.50;100.00
20612;BME280;10465;42.686;23.364;2023-06-14T02:33:52;94693.28;;;18.45;100.00
20612;BME280;10465;42.686;23.364;2023-06-14T02:36:17;94693.75;;;18.51;100.00
20612;BME280;10465;42.686;23.364;2023-06-14T02:38:43;94701.59;;;18.63;100.00
20612;BME280;10465;42.686;23.364;2023-06-14T02:41:08;94706.13;;;18.59;100.00
20612;BME280;10465;42.686;23.364;2023-06-14T02:43:34;94709.50;;;18.52;100.00
20612;BME280;10465;42.686;23.364;2023-06-14T02:46:00;94707.97;;;18.55;100.00
20612;BME280;10465;42.686;23.364;2023-06-14T02:48:26;94705.25;;;18.51;100.00
20612;BME280;10465;42.686;23.364;2023-06-14T02:50:52;94713.41;;;18.59;100.00
20612;BME280;10465;42.686;23.364;2023-06-14T02:53:17;94682.81;;;18.37;100.00
20612;BME280;10465;42.686;23.364;2023-06-14T02:55:44;94699.41;;;18.46;100.00
20612;BME280;10465;42.686;23.364;2023-06-14T02:58:09;94699.00;;;18.44;100.00
20612;BME280;10465;42.686;23.364;2023-06-14T03:00:35;94714.41;;;18.50;100.00
20612;BME280;10465;42.686;23.364;2023-06-14T03:03:01;94712.09;;;18.49;100.00
20612;BME280;10465;42.686;23.364;2023-06-14T03:05:27;94685.31;;;18.26;100.00
20612;BME280;10465;42.686;23.364;2023-06-14T03:07:53;94720.50;;;18.47;100.00
20612;BME280;10465;42.686;23.364;2023-06-14T03:10:19;94717.78;;;18.44;100.00
20612;BME280;10465;42.686;23.364;2023-06-14T03:12:44;94716.94;;;18.40;100.00
20612;BME280;10465;42.686;23.364;2023-06-14T03:15:10;94724.84;;;18.33;100.00
20612;BME280;10465;42.686;23.364;2023-06-14T03:17:38;94709.91;;;18.32;100.00
20612;BME280;10465;42.686;23.364;2023-06-14T03:20:04;94717.34;;;18.42;100.00
20612;BME280;10465;42.686;23.364;2023-06-14T03:22:30;94725.44;;;18.45;100.00
20612;BME280;10465;42.686;23.364;2023-06-14T03:24:57;94704.91;;;18.30;100.00
20612;BME280;10465;42.686;23.364;2023-06-14T03:27:24;94722.69;;;18.42;100.00
20612;BME280;10465;42.686;23.364;2023-06-14T03:29:50;94720.31;;;18.37;100.00
20612;BME280;10465;42.686;23.364;2023-06-14T03:32:16;94733.19;;;18.50;100.00
20612;BME280;10465;42.686;23.364;2023-06-14T03:34:58;94726.72;;;18.51;100.00
20612;BME280;10465;42.686;23.364;2023-06-14T03:37:24;94735.47;;;18.48;100.00
20612;BME280;10465;42.686;23.364;2023-06-14T03:39:49;94724.38;;;18.50;100.00
20612;BME280;10465;42.686;23.364;2023-06-14T03:42:15;94731.28;;;18.51;100.00
20612;BME280;10465;42.686;23.364;2023-06-14T03:44:40;94734.97;;;18.43;100.00
20612;BME280;10465;42.686;23.364;2023-06-14T03:47:06;94717.28;;;18.15;100.00
20612;BME280;10465;42.686;23.364;2023-06-14T03:49:31;94735.56;;;18.33;100.00
20612;BME280;10465;42.686;23.364;2023-06-14T03:51:57;94733.25;;;18.31;100.00
20612;BME280;10465;42.686;23.364;2023-06-14T03:54:22;94734.13;;;18.39;100.00
20612;BME280;10465;42.686;23.364;2023-06-14T03:56:48;94735.34;;;18.41;100.00
20612;BME280;10465;42.686;23.364;2023-06-14T03:59:13;94707.41;;;18.19;100.00
20612;BME280;10465;42.686;23.364;2023-06-14T04:01:39;94741.47;;;18.42;100.00
20612;BME280;10465;42.686;23.364;2023-06-14T04:04:11;94732.91;;;18.33;100.00
20612;BME280;10465;42.686;23.364;2023-06-14T04:06:36;94746.06;;;18.41;100.00
20612;BME280;10465;42.686;23.364;2023-06-14T04:09:02;94736.03;;;18.38;100.00
20612;BME280;10465;42.686;23.364;2023-06-14T04:11:28;94733.53;;;18.49;100.00
20612;BME280;10465;42.686;23.364;2023-06-14T04:13:57;94727.00;;;18.46;100.00
20612;BME280;10465;42.686;23.364;2023-06-14T04:16:22;94739.19;;;18.67;100.00
20612;BME280;10465;42.686;23.364;2023-06-14T04:18:48;94735.28;;;18.61;100.00
20612;BME280;10465;42.686;23.364;2023-06-14T04:21:16;94736.09;;;18.65;100.00
20612;BME280;10465;42.686;23.364;2023-06-14T04:23:42;94739.78;;;18.80;100.00
20612;BME280;10465;42.686;23.364;2023-06-14T04:26:09;94739.13;;;18.86;100.00
20612;BME280;10465;42.686;23.364;2023-06-14T04:28:36;94731.47;;;18.85;100.00
20612;BME280;10465;42.686;23.364;2023-06-14T04:31:06;94733.41;;;18.88;100.00
20612;BME280;10465;42.686;23.364;2023-06-14T04:33:35;94725.34;;;18.84;100.00
20612;BME280;10465;42.686;23.364;2023-06-14T04:36:11;94708.75;;;18.78;100.00
20612;BME280;10465;42.686;23.364;2023-06-14T04:38:38;94751.94;;;18.96;100.00
20612;BME280;10465;42.686;23.364;2023-06-14T04:41:04;94742.75;;;18.97;100.00
20612;BME280;10465;42.686;23.364;2023-06-14T04:43:30;94731.91;;;18.90;100.00
20612;BME280;10465;42.686;23.364;2023-06-14T04:45:57;94744.63;;;18.93;100.00
20612;BME280;10465;42.686;23.364;2023-06-14T04:48:22;94730.44;;;18.93;100.00
20612;BME280;10465;42.686;23.364;2023-06-14T04:50:48;94751.41;;;19.14;100.00
20612;BME280;10465;42.686;23.364;2023-06-14T04:53:19;94750.59;;;19.10;100.00
20612;BME280;10465;42.686;23.364;2023-06-14T04:55:47;94738.53;;;18.96;100.00
20612;BME280;10465;42.686;23.364;2023-06-14T04:58:13;94762.22;;;19.17;100.00
20612;BME280;10465;42.686;23.364;2023-06-14T05:00:39;94764.06;;;19.13;100.00
20612;BME280;10465;42.686;23.364;2023-06-14T05:03:06;94760.34;;;19.21;100.00
20612;BME280;10465;42.686;23.364;2023-06-14T05:05:33;94756.13;;;19.20;100.00
20612;BME280;10465;42.686;23.364;2023-06-14T05:07:59;94768.91;;;19.31;100.00
20612;BME280;10465;42.686;23.364;2023-06-14T05:10:24;94772.34;;;19.31;100.00
20612;BME280;10465;42.686;23.364;2023-06-14T05:12:50;94762.94;;;19.44;100.00
20612;BME280;10465;42.686;23.364;2023-06-14T05:15:15;94772.47;;;19.38;100.00
20612;BME280;10465;42.686;23.364;2023-06-14T05:17:41;94772.63;;;19.52;100.00
20612;BME280;10465;42.686;23.364;2023-06-14T05:20:07;94754.88;;;19.44;100.00
20612;BME280;10465;42.686;23.364;2023-06-14T05:22:35;94765.41;;;19.57;99.79
20612;BME280;10465;42.686;23.364;2023-06-14T05:25:01;94774.34;;;19.64;100.00
20612;BME280;10465;42.686;23.364;2023-06-14T05:27:27;94762.13;;;19.67;100.00
20612;BME280;10465;42.686;23.364;2023-06-14T05:29:52;94777.97;;;19.75;100.00
20612;BME280;10465;42.686;23.364;2023-06-14T05:32:20;94791.16;;;19.88;100.00
20612;BME280;10465;42.686;23.364;2023-06-14T05:34:46;94799.59;;;19.86;99.95
20612;BME280;10465;42.686;23.364;2023-06-14T05:37:12;94794.56;;;19.85;100.00
20612;BME280;10465;42.686;23.364;2023-06-14T05:39:38;94786.81;;;19.80;99.98
20612;BME280;10465;42.686;23.364;2023-06-14T05:42:03;94786.53;;;19.88;100.00
20612;BME280;10465;42.686;23.364;2023-06-14T05:44:29;94783.94;;;19.95;100.00
20612;BME280;10465;42.686;23.364;2023-06-14T05:46:55;94789.38;;;19.99;99.69
20612;BME280;10465;42.686;23.364;2023-06-14T05:49:20;94792.88;;;20.03;100.00
20612;BME280;10465;42.686;23.364;2023-06-14T05:51:45;94798.69;;;20.09;99.95
20612;BME280;10465;42.686;23.364;2023-06-14T05:54:11;94816.81;;;20.15;99.56
20612;BME280;10465;42.686;23.364;2023-06-14T05:56:36;94782.94;;;20.07;99.50
20612;BME280;10465;42.686;23.364;2023-06-14T05:59:02;94794.13;;;20.13;98.65
20612;BME280;10465;42.686;23.364;2023-06-14T06:01:27;94781.44;;;20.10;98.92
20612;BME280;10465;42.686;23.364;2023-06-14T06:03:53;94802.72;;;20.25;99.23
20612;BME280;10465;42.686;23.364;2023-06-14T06:06:18;94789.59;;;20.20;98.41
20612;BME280;10465;42.686;23.364;2023-06-14T06:08:44;94806.28;;;20.37;97.29
20612;BME280;10465;42.686;23.364;2023-06-14T06:11:10;94807.34;;;20.29;96.21
20612;BME280;10465;42.686;23.364;2023-06-14T06:13:36;94805.06;;;20.31;97.23
20612;BME280;10465;42.686;23.364;2023-06-14T06:16:02;94808.56;;;20.35;97.38
20612;BME280;10465;42.686;23.364;2023-06-14T06:18:28;94810.97;;;20.43;97.02
20612;BME280;10465;42.686;23.364;2023-06-14T06:20:53;94810.97;;;20.43;97.03
20612;BME280;10465;42.686;23.364;2023-06-14T06:23:19;94805.28;;;20.48;96.96
20612;BME280;10465;42.686;23.364;2023-06-14T06:25:44;94798.78;;;20.53;96.20
20612;BME280;10465;42.686;23.364;2023-06-14T06:28:10;94814.63;;;20.62;95.96
20612;BME280;10465;42.686;23.364;2023-06-14T06:30:36;94817.31;;;20.62;95.91
20612;BME280;10465;42.686;23.364;2023-06-14T06:33:01;94822.34;;;20.63;96.06
20612;BME280;10465;42.686;23.364;2023-06-14T06:35:28;94808.81;;;20.56;95.37
20612;BME280;10465;42.686;23.364;2023-06-14T06:37:55;94813.84;;;20.61;95.57
20612;BME280;10465;42.686;23.364;2023-06-14T06:40:20;94814.59;;;20.58;95.60
20612;BME280;10465;42.686;23.364;2023-06-14T06:42:46;94819.94;;;20.55;94.52
20612;BME280;10465;42.686;23.364;2023-06-14T06:45:12;94821.06;;;20.50;94.45
20612;BME280;10465;42.686;23.364;2023-06-14T06:47:37;94816.34;;;20.43;95.52
20612;BME280;10465;42.686;23.364;2023-06-14T06:50:08;94824.13;;;20.52;95.75
20612;BME280;10465;42.686;23.364;2023-06-14T06:52:34;94823.03;;;20.57;95.73
20612;BME280;10465;42.686;23.364;2023-06-14T06:55:00;94823.84;;;20.61;96.77
20612;BME280;10465;42.686;23.364;2023-06-14T06:57:25;94825.38;;;20.62;95.97
20612;BME280;10465;42.686;23.364;2023-06-14T06:59:51;94829.59;;;20.59;96.49
20612;BME280;10465;42.686;23.364;2023-06-14T07:02:22;94827.69;;;20.60;96.50
20612;BME280;10465;42.686;23.364;2023-06-14T07:04:48;94825.38;;;20.62;96.08
20612;BME280;10465;42.686;23.364;2023-06-14T07:07:14;94824.25;;;20.63;94.74
20612;BME280;10465;42.686;23.364;2023-06-14T07:09:39;94825.78;;;20.64;95.67
20612;BME280;10465;42.686;23.364;2023-06-14T07:12:07;94821.22;;;20.68;95.42
20612;BME280;10465;42.686;23.364;2023-06-14T07:14:33;94796.50;;;20.55;94.31
20612;BME280;10465;42.686;23.364;2023-06-14T07:16:58;94816.22;;;20.70;93.87
20612;BME280;10465;42.686;23.364;2023-06-14T07:19:24;94815.91;;;20.75;93.36
20612;BME280;10465;42.686;23.364;2023-06-14T07:21:50;94817.16;;;20.88;94.72
20612;BME280;10465;42.686;23.364;2023-06-14T07:24:15;94820.31;;;20.97;95.23
20612;BME280;10465;42.686;23.364;2023-06-14T07:26:41;94827.69;;;21.04;94.19
20612;BME280;10465;42.686;23.364;2023-06-14T07:29:06;94816.16;;;21.04;94.36
20612;BME280;10465;42.686;23.364;2023-06-14T07:31:32;94811.19;;;21.09;94.32
20612;BME280;10465;42.686;23.364;2023-06-14T07:33:57;94805.44;;;21.11;92.07
20612;BME280;10465;42.686;23.364;2023-06-14T07:36:23;94809.72;;;21.15;91.92
20612;BME280;10465;42.686;23.364;2023-06-14T07:38:48;94814.34;;;21.22;93.47
20612;BME280;10465;42.686;23.364;2023-06-14T07:41:14;94811.72;;;21.29;92.52
20612;BME280;10465;42.686;23.364;2023-06-14T07:43:39;94811.34;;;21.27;90.29
20612;BME280;10465;42.686;23.364;2023-06-14T07:46:05;94783.88;;;21.07;89.75
20612;BME280;10465;42.686;23.364;2023-06-14T07:48:30;94790.09;;;21.18;90.21
20612;BME280;10465;42.686;23.364;2023-06-14T07:50:56;94729.13;;;20.85;90.37
20612;BME280;10465;42.686;23.364;2023-06-14T07:53:21;94821.16;;;21.57;89.20
20612;BME280;10465;42.686;23.364;2023-06-14T07:55:47;94826.97;;;21.66;86.61
20612;BME280;10465;42.686;23.364;2023-06-14T07:58:13;94825.47;;;21.72;85.53
20612;BME280;10465;42.686;23.364;2023-06-14T08:00:39;94829.34;;;21.78;85.80
20612;BME280;10465;42.686;23.364;2023-06-14T08:03:04;94808.16;;;21.73;86.63
20612;BME280;10465;42.686;23.364;2023-06-14T08:05:30;94834.81;;;21.92;87.55
20612;BME280;10465;42.686;23.364;2023-06-14T08:07:55;94816.31;;;21.87;86.98
20612;BME280;10465;42.686;23.364;2023-06-14T08:10:22;94845.28;;;22.05;85.80
20612;BME280;10465;42.686;23.364;2023-06-14T08:12:48;94846.06;;;22.09;85.51
20612;BME280;10465;42.686;23.364;2023-06-14T08:15:15;94842.97;;;22.10;85.77
20612;BME280;10465;42.686;23.364;2023-06-14T08:17:43;94839.09;;;22.08;87.10
20612;BME280;10465;42.686;23.364;2023-06-14T08:20:09;94854.59;;;22.18;85.18
20612;BME280;10465;42.686;23.364;2023-06-14T08:22:36;94839.91;;;22.12;84.55
20612;BME280;10465;42.686;23.364;2023-06-14T08:25:02;94847.22;;;22.11;83.69
20612;BME280;10465;42.686;23.364;2023-06-14T08:27:27;94861.13;;;22.13;84.04
20612;BME280;10465;42.686;23.364;2023-06-14T08:29:53;94837.97;;;22.09;84.33
20612;BME280;10465;42.686;23.364;2023-06-14T08:32:19;94854.66;;;22.36;82.07
20612;BME280;10465;42.686;23.364;2023-06-14T08:34:44;94824.94;;;22.18;80.94
20612;BME280;10465;42.686;23.364;2023-06-14T08:37:11;94859.34;;;22.50;79.85
20612;BME280;10465;42.686;23.364;2023-06-14T08:39:37;94858.22;;;22.61;79.25
20612;BME280;10465;42.686;23.364;2023-06-14T08:42:03;94840.88;;;22.62;79.92
20612;BME280;10465;42.686;23.364;2023-06-14T08:44:29;94842.81;;;22.76;80.60
20612;BME280;10465;42.686;23.364;2023-06-14T08:46:59;94826.22;;;22.70;77.71
20612;BME280;10465;42.686;23.364;2023-06-14T08:49:26;94847.88;;;22.95;77.71
20612;BME280;10465;42.686;23.364;2023-06-14T08:52:00;94813.91;;;22.80;77.85
20612;BME280;10465;42.686;23.364;2023-06-14T08:54:28;94829.38;;;22.98;75.70
20612;BME280;10465;42.686;23.364;2023-06-14T08:56:56;94832.84;;;23.09;73.25
20612;BME280;10465;42.686;23.364;2023-06-14T08:59:27;94838.25;;;23.19;72.18
20612;BME280;10465;42.686;23.364;2023-06-14T09:01:53;94831.28;;;23.01;73.01
20612;BME280;10465;42.686;23.364;2023-06-14T09:04:22;94821.66;;;22.89;74.31
20612;BME280;10465;42.686;23.364;2023-06-14T09:06:50;94841.69;;;22.91;74.55
20612;BME280;10465;42.686;23.364;2023-06-14T09:09:19;94816.59;;;22.73;76.41
20612;BME280;10465;42.686;23.364;2023-06-14T09:11:45;94823.13;;;22.72;77.43
20612;BME280;10465;42.686;23.364;2023-06-14T09:14:11;94815.84;;;22.69;77.24
20612;BME280;10465;42.686;23.364;2023-06-14T09:16:37;94829.72;;;22.75;77.80
20612;BME280;10465;42.686;23.364;2023-06-14T09:19:02;94831.25;;;22.79;75.88
20612;BME280;10465;42.686;23.364;2023-06-14T09:21:28;94818.91;;;22.78;74.98
20612;BME280;10465;42.686;23.364;2023-06-14T09:23:59;94827.38;;;22.80;74.17
20612;BME280;10465;42.686;23.364;2023-06-14T09:26:25;94824.69;;;22.80;75.28
20612;BME280;10465;42.686;23.364;2023-06-14T09:28:53;94802.72;;;22.78;75.95
20612;BME280;10465;42.686;23.364;2023-06-14T09:31:20;94810.84;;;22.96;76.50
20612;BME280;10465;42.686;23.364;2023-06-14T09:33:47;94827.84;;;23.18;75.47
20612;BME280;10465;42.686;23.364;2023-06-14T09:36:24;94810.06;;;23.31;74.44
20612;BME280;10465;42.686;23.364;2023-06-14T09:38:58;94803.50;;;23.47;73.30
20612;BME280;10465;42.686;23.364;2023-06-14T09:41:37;94809.63;;;23.76;72.95
20612;BME280;10465;42.686;23.364;2023-06-14T09:44:05;94813.78;;;24.05;71.35
20612;BME280;10465;42.686;23.364;2023-06-14T09:46:32;94797.19;;;24.03;69.37
20612;BME280;10465;42.686;23.364;2023-06-14T09:48:58;94814.88;;;24.22;68.52
20612;BME280;10465;42.686;23.364;2023-06-14T09:51:24;94792.81;;;24.31;68.64
20612;BME280;10465;42.686;23.364;2023-06-14T09:53:50;94812.00;;;24.58;68.22
20612;BME280;10465;42.686;23.364;2023-06-14T09:56:37;94800.00;;;24.62;68.74
20612;BME280;10465;42.686;23.364;2023-06-14T09:59:05;94821.88;;;24.86;67.07
20612;BME280;10465;42.686;23.364;2023-06-14T10:01:32;94813.75;;;24.89;66.42
20612;BME280;10465;42.686;23.364;2023-06-14T10:04:05;94798.28;;;24.86;64.70
20612;BME280;10465;42.686;23.364;2023-06-14T10:06:31;94805.63;;;24.89;63.42
20612;BME280;10465;42.686;23.364;2023-06-14T10:08:58;94795.91;;;24.96;64.49
20612;BME280;10465;42.686;23.364;2023-06-14T10:11:27;94806.34;;;24.94;65.64
20612;BME280;10465;42.686;23.364;2023-06-14T10:13:54;94796.69;;;24.96;63.99
20612;BME280;10465;42.686;23.364;2023-06-14T10:16:27;94791.97;;;25.04;64.07
20612;BME280;10465;42.686;23.364;2023-06-14T10:19:07;94783.41;;;25.16;63.82
20612;BME280;10465;42.686;23.364;2023-06-14T10:21:59;94780.25;;;25.21;62.91
20612;BME280;10465;42.686;23.364;2023-06-14T10:24:32;94775.59;;;25.22;61.39
20612;BME280;10465;42.686;23.364;2023-06-14T10:26:58;94775.50;;;25.32;62.03
20612;BME280;10465;42.686;23.364;2023-06-14T10:29:28;94783.56;;;25.36;60.17
20612;BME280;10465;42.686;23.364;2023-06-14T10:31:58;94775.59;;;25.22;61.59
20612;BME280;10465;42.686;23.364;2023-06-14T10:34:27;94778.84;;;24.99;62.91
20612;BME280;10465;42.686;23.364;2023-06-14T10:37:07;94780.09;;;24.87;63.46
20612;BME280;10465;42.686;23.364;2023-06-14T10:39:43;94767.91;;;24.64;63.44
20612;BME280;10465;42.686;23.364;2023-06-14T10:42:12;94779.06;;;24.70;63.91
20612;BME280;10465;42.686;23.364;2023-06-14T10:44:45;94775.69;;;24.55;63.78
20612;BME280;10465;42.686;23.364;2023-06-14T10:49:54;94772.28;;;24.44;63.98
20612;BME280;10465;42.686;23.364;2023-06-14T10:52:23;94780.00;;;24.46;64.47
20612;BME280;10465;42.686;23.364;2023-06-14T10:54:58;94769.22;;;24.38;64.93
20612;BME280;10465;42.686;23.364;2023-06-14T10:57:24;94763.03;;;24.38;64.77
20612;BME280;10465;42.686;23.364;2023-06-14T10:59:50;94757.22;;;24.43;64.16
20612;BME280;10465;42.686;23.364;2023-06-14T11:05:08;94747.94;;;24.37;61.92
20612;BME280;10465;42.686;23.364;2023-06-14T11:10:36;94734.84;;;24.39;64.23
20612;BME280;10465;42.686;23.364;2023-06-14T11:13:03;94746.28;;;24.61;63.85
20612;BME280;10465;42.686;23.364;2023-06-14T11:15:29;94745.00;;;24.76;62.81
20612;BME280;10465;42.686;23.364;2023-06-14T11:17:55;94732.91;;;24.91;62.45
20612;BME280;10465;42.686;23.364;2023-06-14T11:20:25;94738.47;;;25.19;62.50
20612;BME280;10465;42.686;23.364;2023-06-14T11:22:51;94735.16;;;25.42;62.33
20612;BME280;10465;42.686;23.364;2023-06-14T11:25:17;94739.53;;;25.66;61.88
20612;BME280;10465;42.686;23.364;2023-06-14T11:27:44;94738.22;;;25.81;60.28
20612;BME280;10465;42.686;23.364;2023-06-14T11:30:10;94726.78;;;25.97;60.14
20612;BME280;10465;42.686;23.364;2023-06-14T11:32:37;94723.94;;;26.08;57.87
20612;BME280;10465;42.686;23.364;2023-06-14T11:35:03;94711.56;;;26.07;57.98
20612;BME280;10465;42.686;23.364;2023-06-14T11:37:30;94726.75;;;26.28;57.81
20612;BME280;10465;42.686;23.364;2023-06-14T11:39:57;94701.72;;;26.17;57.76
20612;BME280;10465;42.686;23.364;2023-06-14T11:42:24;94731.19;;;26.45;57.62
20612;BME280;10465;42.686;23.364;2023-06-14T11:44:50;94733.75;;;26.56;57.21
20612;BME280;10465;42.686;23.364;2023-06-14T11:47:15;94710.91;;;26.53;57.73
20612;BME280;10465;42.686;23.364;2023-06-14T11:49:41;94720.41;;;26.65;56.62
20612;BME280;10465;42.686;23.364;2023-06-14T11:52:07;94698.22;;;26.47;57.05
20612;BME280;10465;42.686;23.364;2023-06-14T11:54:33;94712.97;;;26.46;56.86
20612;BME280;10465;42.686;23.364;2023-06-14T11:56:58;94712.44;;;26.27;57.30
20612;BME280;10465;42.686;23.364;2023-06-14T11:59:24;94708.69;;;26.18;56.27
20612;BME280;10465;42.686;23.364;2023-06-14T12:01:50;94689.09;;;26.06;55.94
20612;BME280;10465;42.686;23.364;2023-06-14T12:04:28;94682.13;;;26.05;55.46
20612;BME280;10465;42.686;23.364;2023-06-14T12:06:54;94693.03;;;26.02;57.69
20612;BME280;10465;42.686;23.364;2023-06-14T12:09:21;94662.91;;;25.93;56.99
20612;BME280;10465;42.686;23.364;2023-06-14T12:11:49;94676.19;;;26.14;54.07
20612;BME280;10465;42.686;23.364;2023-06-14T12:14:15;94681.53;;;26.21;55.84
20612;BME280;10465;42.686;23.364;2023-06-14T12:16:41;94678.16;;;26.13;56.35
20612;BME280;10465;42.686;23.364;2023-06-14T12:19:09;94681.97;;;26.16;57.08
20612;BME280;10465;42.686;23.364;2023-06-14T12:21:39;94675.88;;;26.35;57.28
20612;BME280;10465;42.686;23.364;2023-06-14T12:24:08;94657.41;;;26.54;55.36
20612;BME280;10465;42.686;23.364;2023-06-14T12:26:41;94673.81;;;26.70;54.46
20612;BME280;10465;42.686;23.364;2023-06-14T12:29:07;94669.59;;;26.66;54.25
20612;BME280;10465;42.686;23.364;2023-06-14T12:31:33;94666.09;;;26.42;54.22
20612;BME280;10465;42.686;23.364;2023-06-14T12:33:58;94652.59;;;26.11;55.17
20612;BME280;10465;42.686;23.364;2023-06-14T12:36:24;94663.91;;;26.06;54.29
20612;BME280;10465;42.686;23.364;2023-06-14T12:38:51;94665.94;;;25.98;54.68
20612;BME280;10465;42.686;23.364;2023-06-14T12:41:19;94649.06;;;25.87;55.39
20612;BME280;10465;42.686;23.364;2023-06-14T12:43:46;94661.75;;;25.94;57.40
20612;BME280;10465;42.686;23.364;2023-06-14T12:46:12;94655.25;;;25.87;57.55
20612;BME280;10465;42.686;23.364;2023-06-14T12:48:37;94656.94;;;25.78;58.35
20612;BME280;10465;42.686;23.364;2023-06-14T12:51:03;94650.75;;;25.77;57.74
20612;BME280;10465;42.686;23.364;2023-06-14T12:53:28;94643.91;;;25.65;57.19
20612;BME280;10465;42.686;23.364;2023-06-14T12:55:54;94647.06;;;25.60;56.92
20612;BME280;10465;42.686;23.364;2023-06-14T12:58:19;94645.53;;;25.56;57.28